Weather history for 0420

Weather History For Prescott AZ

This page updates 5 minutes after midnight. GMT -7

Station: KPRC0 Rows: 26

Return to today's weather
Year Date Temp (°F) Tmin (°F) Tmax (°F) RH% Prcp Snow Wind Gust Pres Sun Cloud
2000 2000-04-20 58.1 35.1 75.0 32 12.3 29.99 1
2001 2001-04-20 52.0 42.1 59.0 27 19.2 29.76 0
2002 2002-04-20 46.2 33.8 57.2 26 18.1 29.87 0
2003 2003-04-20 52.3 33.8 66.2 38 12.9 29.93 0
2004 2004-04-20 52.9 37.4 66.2 30 10.5 29.97 0
2005 2005-04-20 49.1 37.0 61.0 35 0.0 14.6 29.90 0
2006 2006-04-20 58.1 39.0 75.0 21 0.0 10.1 29.85 1
2007 2007-04-20 48.6 36.0 57.9 22 0.0 14.8 29.73 1
2008 2008-04-20 54.7 44.1 64.9 24 0.0 19.2 29.75 0
2009 2009-04-20 62.1 39.0 80.1 22 0.0 9.4 30.08 0
2010 2010-04-20 59.9 46.0 70.0 44 0.0 16.0 29.80 3
2011 2011-04-20 59.4 42.1 72.0 37 0.0 12.6 29.85 0
2012 2012-04-20 64.8 45.0 81.0 29 0.0 7.1 29.95 0
2013 2013-04-20 56.8 39.0 73.9 18 0.0 12.8 29.91 0
2014 2014-04-20 61.7 44.1 75.9 40 10.3 29.98
2015 2015-04-20 61.3 45.0 73.9 20 0.0 13.5 29.78
2016 2016-04-20 61.3 45.0 77.0 24 0.0 11.7 29.91 0
2017 2017-04-20 59.7 44.1 73.9 29 0.0 15.5 29.92 0
2018 2018-04-20 49.3 39.0 63.0 41 0.0 17.5 29.90
2019 2019-04-20 63.3 51.1 73.9 24 0.0 19.2 29.75 1
2020 2020-04-20 56.3 45.0 66.9 38 0.0 11.5 29.88
2021 2021-04-20 61.2 48.9 73.0 15 0.0 14.9 29.81 0
2022 2022-04-20 60.3 44.1 71.1 24 0.0 12.9 29.77 0
2023 2023-04-20 50.7 32.0 66.9 22 0.0 11.9 30.06 0
2024 2024-04-20 63.1 45.0 77.0 23 0.0 9.3 29.88 0
2025 2025-04-20 52.0 33.1 68.0 31 0.0 7.3 30.02 0
Average Low 41.0
Average High 70.0

Daily High / Low by Year (04/20)

Barometric Pressure by Year (04/20)

Weather data provided by Meteostat